Time;durP1;ratioP1;P1;durP2;ratioP2;P2;SDS_P1;SDS_P2;PMS_P1;PMS_P2;Temp;Humidity;BMP_temperature;BMP_pressure;BME280_temperature;BME280_humidity;BME280_pressure;Samples;Min_cycle;Max_cycle;Signal;HPM_P1;HPM_P2
2023/06/25 00:02:06;;;;;;;6.22;4.25;;;20.80;46.20;;;22.71;36.55;98021.53;4954403;29;20047;-54
2023/06/25 00:04:34;;;;;;;5.68;4.28;;;20.80;46.20;;;22.67;36.72;98013.00;4954302;29;20047;-51
2023/06/25 00:07:01;;;;;;;6.30;4.05;;;20.70;46.00;;;22.65;36.92;98011.59;4953906;29;20051;-51
2023/06/25 00:09:29;;;;;;;5.28;4.30;;;20.70;46.40;;;22.63;37.11;98017.25;4953975;29;20047;-52
2023/06/25 00:11:56;;;;;;;5.90;3.70;;;20.70;46.40;;;22.60;36.74;98014.97;4954056;29;20055;-53
2023/06/25 00:14:24;;;;;;;6.43;3.92;;;20.70;46.40;;;22.56;37.20;98017.31;4952945;29;20416;-55
2023/06/25 00:16:57;;;;;;;5.82;4.60;;;20.60;46.60;;;22.51;37.39;98013.66;4953561;29;20054;-50
2023/06/25 00:19:26;;;;;;;5.93;4.28;;;20.50;47.00;;;22.47;37.35;98021.44;4953725;28;20048;-52
2023/06/25 00:21:54;;;;;;;6.40;4.97;;;20.50;47.60;;;22.42;37.74;98021.28;4954283;28;20055;-52
2023/06/25 00:24:22;;;;;;;6.03;4.38;;;20.40;47.90;;;22.35;37.60;98010.53;4953761;29;20050;-53
2023/06/25 00:26:49;;;;;;;4.80;4.18;;;20.40;48.20;;;22.35;37.64;98015.09;4952525;28;20058;-51
2023/06/25 00:29:17;;;;;;;7.13;4.32;;;20.30;48.30;;;22.29;37.98;98024.97;4953594;29;20043;-51
2023/06/25 00:31:45;;;;;;;7.40;4.80;;;20.30;48.60;;;22.24;38.12;98022.09;4936546;29;20066;-53
2023/06/25 00:34:12;;;;;;;6.43;4.75;;;20.20;48.70;;;22.21;37.82;98026.06;4936773;29;20522;-51
2023/06/25 00:36:40;;;;;;;4.47;3.97;;;20.20;48.30;;;22.18;38.09;98018.41;4953534;29;20047;-50
2023/06/25 00:39:08;;;;;;;5.43;4.30;;;20.20;48.20;;;22.16;38.17;98015.09;4936233;29;20047;-54
2023/06/25 00:41:39;;;;;;;5.10;4.00;;;20.20;48.30;;;22.17;38.03;98015.91;4944461;29;20047;-50
2023/06/25 00:44:09;;;;;;;5.53;4.43;;;20.20;48.40;;;22.15;37.96;98009.91;4951248;29;20466;-53
2023/06/25 00:46:37;;;;;;;5.00;4.25;;;20.10;48.50;;;22.11;38.27;98012.22;4945671;29;20054;-53
2023/06/25 00:49:07;;;;;;;5.60;4.47;;;20.10;48.70;;;22.08;38.45;98009.13;4951167;28;20055;-51
2023/06/25 00:51:36;;;;;;;5.68;4.50;;;20.10;48.70;;;22.03;38.23;97999.81;4943569;29;20047;-52
2023/06/25 00:54:05;;;;;;;5.38;4.57;;;20.20;48.80;;;22.01;38.54;98001.09;4936404;29;20055;-53
2023/06/25 00:56:34;;;;;;;6.32;4.72;;;20.00;48.80;;;21.98;38.81;97998.81;4943306;29;20054;-50
2023/06/25 00:59:03;;;;;;;5.80;4.15;;;20.10;49.20;;;21.97;38.45;97997.19;4935717;29;20059;-53
2023/06/25 01:01:48;;;;;;;7.03;4.13;;;20.00;48.90;;;21.94;38.73;97997.63;4935993;29;20051;-50
2023/06/25 01:04:25;;;;;;;4.80;4.22;;;20.10;50.30;;;21.93;38.52;97995.97;4936840;29;20082;-53
2023/06/25 01:07:00;;;;;;;5.45;4.22;;;20.00;49.50;;;21.91;38.66;97996.19;4936643;29;20062;-54
2023/06/25 01:09:29;;;;;;;6.93;4.55;;;20.00;49.30;;;21.88;38.49;97990.41;4936540;29;20070;-54
2023/06/25 01:12:05;;;;;;;5.38;4.78;;;19.90;49.30;;;21.85;38.77;97994.41;4936496;29;20055;-53
2023/06/25 01:14:33;;;;;;;6.55;4.65;;;19.90;49.90;;;21.80;38.62;97983.41;4952555;28;20050;-50
2023/06/25 01:17:01;;;;;;;6.63;4.93;;;19.80;49.30;;;21.77;38.96;97984.69;4951314;29;20419;-54
2023/06/25 01:19:31;;;;;;;5.47;4.10;;;19.80;49.60;;;21.72;38.84;97983.69;4951243;29;20054;-49
2023/06/25 01:22:00;;;;;;;6.10;4.43;;;19.80;49.80;;;21.68;39.08;97982.50;4921315;29;20110;-54
2023/06/25 01:24:29;;;;;;;5.68;4.47;;;19.70;50.10;;;21.65;39.37;97985.63;4951192;29;20055;-52
2023/06/25 01:26:59;;;;;;;4.60;4.13;;;19.70;50.40;;;21.58;39.08;97978.41;4945667;29;20055;-52
2023/06/25 01:29:28;;;;;;;5.07;4.50;;;19.60;50.60;;;21.56;39.40;97966.16;4952599;29;20043;-52
2023/06/25 01:31:57;;;;;;;4.35;3.83;;;19.50;50.60;;;21.50;39.62;97967.88;4951541;29;20055;-51
2023/06/25 01:34:25;;;;;;;5.38;4.50;;;19.50;50.80;;;21.48;39.70;97974.53;4952698;29;20043;-50
2023/06/25 01:36:53;;;;;;;4.90;4.38;;;19.40;50.90;;;21.41;39.54;97972.69;4952798;29;20052;-53
2023/06/25 01:39:24;;;;;;;5.70;5.07;;;19.40;51.10;;;21.38;39.46;97961.47;4950994;28;20059;-50
2023/06/25 01:41:52;;;;;;;8.07;5.25;;;19.40;51.10;;;21.35;39.43;97970.91;4950933;29;20054;-52
2023/06/25 01:44:28;;;;;;;5.65;4.93;;;19.30;51.20;;;21.30;39.74;97970.72;4952615;29;20043;-53
2023/06/25 01:46:57;;;;;;;6.65;4.25;;;19.30;51.80;;;21.28;39.95;97972.00;4944349;29;20051;-51
2023/06/25 01:49:25;;;;;;;5.15;4.03;;;19.30;51.60;;;21.29;39.86;97970.97;4952071;29;20054;-52
2023/06/25 01:52:01;;;;;;;6.22;4.75;;;19.30;51.60;;;21.27;39.98;97970.34;4952870;28;20058;-51
2023/06/25 01:54:29;;;;;;;5.50;4.55;;;19.30;51.50;;;21.27;40.39;97964.91;4950610;29;20051;-52
2023/06/25 01:56:57;;;;;;;5.20;4.22;;;19.30;51.50;;;21.26;40.33;97957.84;4919424;29;20051;-53
2023/06/25 01:59:24;;;;;;;5.53;4.05;;;19.30;51.60;;;21.22;40.01;97954.75;4950726;29;20415;-52
2023/06/25 02:01:52;;;;;;;5.18;4.35;;;19.30;51.70;;;21.22;40.42;97963.72;4953522;28;20043;-50
2023/06/25 02:04:20;;;;;;;5.78;4.15;;;19.30;51.90;;;21.22;40.33;97957.47;4956186;29;20054;-54
2023/06/25 02:06:47;;;;;;;5.43;4.43;;;19.30;51.80;;;21.19;40.56;97960.59;4954676;29;20062;-54
2023/06/25 02:09:15;;;;;;;8.57;3.70;;;19.20;51.80;;;21.16;40.51;97955.66;4954467;29;20521;-50
2023/06/25 02:11:43;;;;;;;5.70;4.05;;;19.20;52.00;;;21.13;40.32;97943.41;4956053;29;20051;-53
2023/06/25 02:14:10;;;;;;;4.93;4.13;;;19.20;52.10;;;21.12;40.60;97941.72;4954766;29;20354;-54
2023/06/25 02:16:38;;;;;;;8.25;4.65;;;19.20;52.40;;;21.10;40.52;97941.13;4954523;29;20502;-53
2023/06/25 02:19:08;;;;;;;5.70;4.43;;;19.20;52.40;;;21.07;40.71;97938.03;4945823;29;20125;-53
2023/06/25 02:21:35;;;;;;;5.82;4.65;;;19.20;52.30;;;21.01;40.45;97937.03;4956355;29;20066;-55
2023/06/25 02:24:06;;;;;;;5.28;4.55;;;19.00;52.50;;;20.97;40.45;97935.81;4954176;29;20395;-51
2023/06/25 02:26:33;;;;;;;6.15;5.10;;;18.90;52.70;;;20.93;40.92;97930.03;4945947;29;20058;-51
2023/06/25 02:29:01;;;;;;;5.70;4.57;;;18.90;52.80;;;20.90;40.83;97925.06;4954331;29;20051;-54
2023/06/25 02:31:29;;;;;;;5.40;4.20;;;18.90;52.90;;;20.88;40.90;97926.31;4954314;29;20043;-53
2023/06/25 02:33:57;;;;;;;6.28;4.40;;;18.90;52.80;;;20.90;40.98;97932.34;4954524;28;20047;-53
2023/06/25 02:36:25;;;;;;;6.93;4.20;;;18.90;52.80;;;20.90;40.98;97932.34;4955794;28;20043;-52
2023/06/25 02:38:52;;;;;;;5.70;5.10;;;19.00;52.70;;;20.90;40.83;97935.88;4955519;28;20414;-51
2023/06/25 02:41:20;;;;;;;5.45;4.60;;;19.00;52.70;;;20.90;41.00;97929.63;4954491;29;20043;-52
2023/06/25 02:43:48;;;;;;;5.78;5.10;;;19.10;52.80;;;20.88;41.04;97929.88;4946142;29;20054;-52
2023/06/25 02:46:15;;;;;;;6.15;4.45;;;19.00;52.60;;;20.87;41.28;97935.50;4953922;28;20438;-50
2023/06/25 02:48:43;;;;;;;6.05;4.78;;;18.90;52.90;;;20.86;41.49;97934.69;4955284;29;20080;-53
2023/06/25 02:51:14;;;;;;;5.40;4.35;;;18.90;52.70;;;20.84;41.36;97937.59;4953986;29;20051;-53
2023/06/25 02:53:41;;;;;;;6.90;5.85;;;18.90;53.00;;;20.81;41.35;97934.50;4953718;28;20051;-51
2023/06/25 02:56:09;;;;;;;6.68;4.05;;;18.90;53.30;;;20.77;41.48;97927.88;4955365;29;20411;-50
2023/06/25 02:58:37;;;;;;;6.10;4.55;;;18.80;53.30;;;20.76;41.78;97929.75;4938187;29;20388;-54
2023/06/25 03:01:05;;;;;;;6.03;4.88;;;18.80;53.70;;;20.73;41.81;97927.47;4945428;29;20055;-50
2023/06/25 03:03:32;;;;;;;8.02;5.40;;;18.80;53.90;;;20.69;41.83;97928.16;4954326;28;20070;-53
2023/06/25 03:06:01;;;;;;;6.57;5.00;;;18.70;54.20;;;20.62;41.88;97937.13;4955452;29;20280;-51
2023/06/25 03:08:28;;;;;;;7.43;5.50;;;18.50;54.60;;;20.59;41.84;97923.19;4952865;29;20427;-53
2023/06/25 03:10:56;;;;;;;6.65;5.60;;;18.50;54.80;;;20.53;42.43;97926.75;4955383;28;20042;-53
2023/06/25 03:13:24;;;;;;;7.82;5.68;;;18.50;55.20;;;20.49;42.53;97931.78;4952826;28;20047;-51
2023/06/25 03:15:51;;;;;;;8.00;5.20;;;18.40;55.40;;;20.46;42.38;97926.81;4945502;29;20052;-54
2023/06/25 03:18:21;;;;;;;8.48;6.15;;;18.40;55.60;;;20.42;42.56;97923.69;4952978;28;20224;-51
2023/06/25 03:20:49;;;;;;;7.57;5.30;;;18.40;55.80;;;20.41;42.68;97932.88;4937503;28;20398;-54
2023/06/25 03:23:17;;;;;;;8.20;5.40;;;18.40;55.70;;;20.41;42.39;97930.16;4955237;29;20411;-53
2023/06/25 03:25:46;;;;;;;6.78;5.63;;;18.50;55.20;;;20.42;42.64;97928.28;4953329;29;20046;-54
2023/06/25 03:28:20;;;;;;;7.78;5.30;;;18.50;55.20;;;20.41;42.30;97932.88;4953042;29;20051;-50
2023/06/25 03:30:49;;;;;;;8.10;5.13;;;18.50;54.80;;;20.44;42.35;97932.41;4953309;29;20043;-50
2023/06/25 03:33:18;;;;;;;6.88;5.30;;;18.60;54.60;;;20.48;42.25;97934.69;4953220;29;20043;-51
2023/06/25 03:35:46;;;;;;;6.45;5.47;;;18.60;54.40;;;20.49;42.47;97931.78;4953324;29;20050;-54
2023/06/25 03:38:14;;;;;;;7.47;6.40;;;18.70;55.40;;;20.49;42.68;97930.94;4937569;29;20050;-52
2023/06/25 03:40:42;;;;;;;6.78;5.32;;;18.70;54.80;;;20.45;42.68;97927.84;4961627;28;20043;-52
2023/06/25 03:43:10;;;;;;;6.43;5.18;;;18.60;54.80;;;20.44;42.76;97929.72;4951643;29;20525;-53
2023/06/25 03:45:37;;;;;;;7.32;5.43;;;18.60;54.90;;;20.44;42.88;97927.00;4943834;29;20054;-52
2023/06/25 03:48:06;;;;;;;8.23;5.72;;;18.60;55.10;;;20.43;42.58;97933.47;4952402;29;20420;-53
2023/06/25 03:50:33;;;;;;;6.75;4.82;;;18.50;55.10;;;20.41;42.95;97929.31;4954655;29;20058;-51
2023/06/25 03:53:01;;;;;;;7.47;5.40;;;18.50;55.30;;;20.41;42.90;97932.03;4954935;29;20045;-53
2023/06/25 03:55:31;;;;;;;8.20;5.65;;;18.50;55.20;;;20.39;43.12;97926.81;4952850;28;20040;-50
2023/06/25 03:57:58;;;;;;;8.23;5.55;;;18.50;55.40;;;20.41;43.38;97918.50;4954191;28;20047;-52
2023/06/25 04:00:27;;;;;;;5.72;4.72;;;18.60;55.90;;;20.39;43.35;97920.59;4952729;28;20054;-54
2023/06/25 04:02:55;;;;;;;7.00;5.68;;;18.50;56.10;;;20.38;43.21;97925.19;4944800;29;20051;-52
2023/06/25 04:05:22;;;;;;;7.38;6.22;;;18.50;55.80;;;20.40;43.63;97922.28;4952546;29;20047;-53
2023/06/25 04:07:50;;;;;;;7.70;5.50;;;18.60;56.40;;;20.39;43.50;97918.72;4954142;28;20050;-52
2023/06/25 04:10:18;;;;;;;7.13;5.15;;;18.60;56.30;;;20.39;43.95;97916.00;4954084;29;20048;-53
2023/06/25 04:12:46;;;;;;;6.90;5.43;;;18.50;56.70;;;20.39;43.60;97909.78;4936561;29;20054;-51
2023/06/25 04:15:14;;;;;;;7.63;6.20;;;18.50;56.80;;;20.39;43.97;97916.00;4952194;29;20106;-51
2023/06/25 04:17:42;;;;;;;6.97;5.50;;;18.50;57.00;;;20.41;43.82;97910.38;4953592;29;20055;-50
2023/06/25 04:20:09;;;;;;;9.00;6.43;;;18.60;57.00;;;20.41;43.82;97910.38;4948573;29;20050;-51
2023/06/25 04:22:37;;;;;;;7.57;5.60;;;18.60;56.80;;;20.42;43.92;97904.78;4952863;28;20055;-49
2023/06/25 04:25:06;;;;;;;8.20;6.22;;;18.60;56.90;;;20.44;43.80;97910.78;4952522;28;20051;-51
2023/06/25 04:27:35;;;;;;;8.93;6.72;;;18.70;56.80;;;20.46;44.10;97902.47;4952086;28;20428;-53
2023/06/25 04:30:03;;;;;;;9.88;6.53;;;18.70;56.50;;;20.48;43.74;97908.47;4951847;29;20052;-49
2023/06/25 04:32:32;;;;;;;7.78;6.05;;;18.80;56.40;;;20.53;44.09;97907.81;4952620;28;20051;-49
2023/06/25 04:35:01;;;;;;;8.10;6.13;;;18.80;56.30;;;20.56;43.87;97902.81;4952341;29;20050;-53
2023/06/25 04:37:29;;;;;;;8.90;6.03;;;18.90;56.20;;;20.59;43.76;97906.97;4952578;29;20047;-52
2023/06/25 04:39:57;;;;;;;7.75;6.20;;;18.90;56.20;;;20.58;43.91;97906.13;4952260;28;20047;-53
2023/06/25 04:42:25;;;;;;;8.63;6.80;;;18.90;56.10;;;20.61;44.03;97911.13;4949889;29;20047;-51
2023/06/25 04:44:52;;;;;;;9.95;8.57;;;18.90;56.30;;;20.59;44.32;97909.66;4951932;29;20135;-52
2023/06/25 04:47:20;;;;;;;8.95;6.93;;;18.90;57.50;;;20.62;44.40;97911.94;4942781;29;20435;-53
2023/06/25 04:49:49;;;;;;;9.32;7.10;;;18.90;57.20;;;20.65;44.91;97911.53;4951580;29;20051;-54
2023/06/25 04:52:19;;;;;;;11.90;7.30;;;18.90;57.50;;;20.67;44.67;97911.31;4952489;28;20047;-52
2023/06/25 04:54:47;;;;;;;8.95;7.78;;;19.00;57.80;;;20.68;44.33;97908.38;4953397;29;20051;-53
2023/06/25 04:57:15;;;;;;;9.63;8.20;;;19.00;57.20;;;20.69;44.67;97907.31;4952097;29;20379;-52
2023/06/25 04:59:43;;;;;;;8.52;7.65;;;19.00;57.20;;;20.71;44.44;97910.63;4952930;28;20058;-52
2023/06/25 05:02:10;;;;;;;8.35;6.68;;;19.00;57.10;;;20.73;44.39;97905.84;4936392;29;20042;-51
2023/06/25 05:04:38;;;;;;;8.48;7.18;;;19.00;57.40;;;20.74;44.69;97910.19;4952836;28;20521;-51
2023/06/25 05:07:06;;;;;;;8.35;7.40;;;19.00;57.10;;;20.76;44.76;97910.81;4953156;29;20047;-50
2023/06/25 05:09:33;;;;;;;10.50;6.60;;;19.10;57.40;;;20.78;44.47;97916.00;4953016;29;20293;-48
2023/06/25 05:12:01;;;;;;;8.32;6.82;;;19.10;57.50;;;20.81;45.11;97910.97;4953263;28;20043;-51
2023/06/25 05:14:30;;;;;;;7.85;6.68;;;19.10;57.50;;;20.82;44.61;97922.63;4953248;29;20046;-52
2023/06/25 05:16:57;;;;;;;12.95;7.93;;;19.10;57.40;;;20.82;44.65;97922.63;4952448;28;20043;-49
2023/06/25 05:19:25;;;;;;;8.70;7.40;;;19.10;57.30;;;20.84;44.79;97923.25;4934820;29;20059;-51
2023/06/25 05:21:52;;;;;;;8.43;6.88;;;19.20;57.00;;;20.88;44.82;97924.47;4953107;29;20054;-52
2023/06/25 05:24:20;;;;;;;10.60;7.35;;;19.30;57.10;;;20.92;44.43;97920.25;4952959;29;20070;-51
2023/06/25 05:26:48;;;;;;;8.65;7.75;;;19.30;57.80;;;20.96;44.65;97935.00;4952847;29;20422;-51
2023/06/25 05:29:15;;;;;;;9.88;7.93;;;19.40;57.00;;;21.00;44.79;97929.97;4951382;28;20450;-51
2023/06/25 05:31:43;;;;;;;8.45;7.07;;;19.40;56.70;;;21.05;44.81;97930.13;4951841;29;20043;-51
2023/06/25 05:34:11;;;;;;;8.23;7.22;;;19.50;56.50;;;21.08;44.73;97927.00;4952746;29;20047;-47
2023/06/25 05:36:38;;;;;;;11.07;8.65;;;19.70;56.30;;;21.14;44.90;97928.81;4957230;28;20506;-53
2023/06/25 05:39:06;;;;;;;9.45;8.07;;;19.70;56.30;;;21.20;44.45;97927.91;4959110;28;20375;-50
2023/06/25 05:41:39;;;;;;;9.93;6.93;;;19.80;56.20;;;21.25;44.79;97929.97;4959269;29;20046;-50
2023/06/25 05:44:07;;;;;;;;;;;19.90;56.40;;;21.32;44.54;97927.19;4955804;28;20047;-50
2023/06/25 05:46:34;;;;;;;8.25;7.32;;;19.90;57.00;;;21.39;44.69;97927.94;4958221;29;20160;-52
2023/06/25 05:49:02;;;;;;;10.20;7.68;;;19.90;56.40;;;21.42;44.52;97928.34;4958033;28;20046;-51
2023/06/25 05:51:30;;;;;;;9.43;7.18;;;20.00;56.30;;;21.45;45.07;97927.09;4958423;28;20039;-51
2023/06/25 05:53:57;;;;;;;8.45;7.60;;;20.10;56.50;;;21.50;44.70;97929.97;4958158;28;20047;-53
2023/06/25 05:56:25;;;;;;;8.30;6.70;;;20.10;56.50;;;21.51;44.52;97928.88;4957114;29;20039;-52
2023/06/25 05:58:53;;;;;;;9.30;6.90;;;20.20;56.10;;;21.55;44.73;97927.38;4956620;28;20422;-52
2023/06/25 06:01:21;;;;;;;8.27;7.43;;;20.30;56.30;;;21.62;44.96;97932.75;4958313;29;20039;-50
2023/06/25 06:03:49;;;;;;;8.82;7.05;;;20.30;56.40;;;21.66;44.89;97930.41;4958241;28;20411;-50
2023/06/25 06:06:17;;;;;;;8.75;6.90;;;20.40;56.40;;;21.70;45.23;97926.19;4958018;29;20070;-51
2023/06/25 06:08:45;;;;;;;9.00;6.75;;;20.40;56.60;;;21.76;44.82;97923.41;4957326;28;20043;-50
2023/06/25 06:11:12;;;;;;;9.30;6.60;;;20.50;56.20;;;21.81;44.18;97925.44;4958265;29;20054;-50
2023/06/25 06:13:40;;;;;;;6.85;5.88;;;20.60;55.40;;;21.88;43.97;97926.19;4958185;29;20062;-49
2023/06/25 06:16:08;;;;;;;7.10;5.55;;;20.60;55.60;;;21.94;43.79;97924.44;4950323;28;20050;-52
2023/06/25 06:18:36;;;;;;;8.30;6.57;;;20.70;54.40;;;22.00;43.58;97921.66;4957546;28;20039;-52
2023/06/25 06:21:03;;;;;;;7.15;5.63;;;20.80;54.30;;;22.07;43.39;97931.59;4957478;28;20036;-50
2023/06/25 06:23:31;;;;;;;6.90;5.28;;;20.90;53.50;;;22.12;43.04;97935.28;4958956;28;20105;-49
2023/06/25 06:25:58;;;;;;;6.45;4.85;;;20.90;52.70;;;22.18;42.48;97926.22;4957739;29;20055;-47
2023/06/25 06:28:26;;;;;;;7.43;4.88;;;21.00;52.10;;;22.21;42.33;97933.88;4958507;28;20043;-48
2023/06/25 06:30:54;;;;;;;8.82;5.85;;;21.10;51.30;;;22.28;41.95;97930.31;4958711;29;20510;-51
2023/06/25 06:33:21;;;;;;;7.03;4.97;;;21.10;51.40;;;22.33;41.79;97934.00;4958779;28;20058;-52
2023/06/25 06:35:49;;;;;;;9.20;5.90;;;21.10;51.10;;;22.39;41.69;97926.78;4958849;29;20043;-50
2023/06/25 06:38:16;;;;;;;6.28;5.10;;;21.20;51.00;;;22.46;41.63;97929.44;4958437;29;20039;-52
2023/06/25 06:40:44;;;;;;;6.75;5.45;;;21.20;51.00;;;22.52;41.53;97933.94;4958399;29;20044;-46
2023/06/25 06:43:11;;;;;;;9.63;6.10;;;21.30;51.10;;;22.56;41.70;97937.81;4958631;29;20043;-46
2023/06/25 06:45:39;;;;;;;6.63;5.53;;;21.40;51.00;;;22.60;41.82;97933.59;4958663;29;20054;-44
2023/06/25 06:48:08;;;;;;;8.50;5.82;;;21.50;51.10;;;22.64;41.69;97936.66;4955346;28;20043;-48
2023/06/25 06:50:35;;;;;;;7.05;5.57;;;21.50;51.00;;;22.68;41.57;97938.72;4955391;28;20430;-47
2023/06/25 06:53:03;;;;;;;7.53;5.82;;;21.50;51.00;;;22.71;41.73;97935.50;4955384;29;20054;-49
2023/06/25 06:55:33;;;;;;;6.65;5.70;;;21.60;50.80;;;22.76;41.60;97934.81;4955356;29;20047;-49
2023/06/25 06:58:00;;;;;;;7.53;6.20;;;21.60;50.90;;;22.80;41.71;97934.13;4954912;29;20055;-48
2023/06/25 07:00:28;;;;;;;7.22;6.30;;;21.60;50.80;;;22.84;41.75;97934.50;4955281;28;20502;-47
2023/06/25 07:02:57;;;;;;;7.82;5.90;;;21.70;51.00;;;22.89;41.74;97931.06;4955315;29;20070;-48
2023/06/25 07:05:25;;;;;;;7.20;5.78;;;21.70;50.80;;;22.95;41.03;97935.56;4955044;29;20495;-47
2023/06/25 07:07:52;;;;;;;6.28;5.13;;;21.80;50.50;;;23.00;41.01;97935.69;4954868;29;20506;-48
2023/06/25 07:10:20;;;;;;;7.32;6.18;;;21.80;50.20;;;23.04;40.96;97927.94;4937966;29;20044;-46
2023/06/25 07:12:47;;;;;;;7.13;5.40;;;21.90;49.90;;;23.08;40.93;97931.84;4954898;28;20043;-45
2023/06/25 07:15:15;;;;;;;7.15;6.15;;;21.90;49.90;;;23.13;40.54;97926.53;4955299;29;20517;-44
2023/06/25 07:17:44;;;;;;;7.55;6.03;;;22.00;49.40;;;23.16;40.44;97926.03;4954754;29;20055;-44
2023/06/25 07:20:12;;;;;;;8.60;6.65;;;22.00;49.10;;;23.20;40.51;97924.50;4954492;29;20058;-45
2023/06/25 07:22:40;;;;;;;8.55;6.45;;;22.00;49.10;;;23.23;40.24;97924.06;4954782;29;20051;-48
2023/06/25 07:25:09;;;;;;;7.63;6.72;;;22.00;48.90;;;23.26;40.17;97925.47;4954015;28;20039;-49
2023/06/25 07:27:37;;;;;;;9.88;7.10;;;22.10;48.90;;;23.31;40.06;97933.72;4954625;29;20051;-48
2023/06/25 07:30:05;;;;;;;8.45;6.13;;;22.10;48.50;;;23.37;39.53;97939.03;4937589;29;20051;-46
2023/06/25 07:32:33;;;;;;;8.90;6.70;;;22.20;47.90;;;23.42;39.36;97937.50;4954747;29;20047;-48
2023/06/25 07:35:01;;;;;;;7.82;6.05;;;22.30;47.70;;;23.45;39.20;97934.31;4954918;29;20491;-45
2023/06/25 07:37:28;;;;;;;8.25;5.85;;;22.30;47.40;;;23.50;39.24;97927.09;4954338;28;20423;-48
2023/06/25 07:39:56;;;;;;;7.50;5.63;;;22.40;47.00;;;23.57;39.24;97929.69;4954489;29;20070;-49
2023/06/25 07:42:24;;;;;;;7.75;5.90;;;22.40;47.30;;;23.62;39.08;97929.81;4954602;29;20396;-46
2023/06/25 07:44:51;;;;;;;7.05;5.78;;;22.50;47.10;;;23.67;39.28;97920.94;4954144;28;20504;-45
2023/06/25 07:47:25;;;;;;;8.68;6.15;;;22.60;47.20;;;23.72;38.91;97921.06;4954445;29;20051;-44
2023/06/25 07:49:52;;;;;;;7.47;5.88;;;22.60;47.00;;;23.76;38.90;97923.03;4953673;28;20055;-45
2023/06/25 07:52:20;;;;;;;6.32;5.20;;;22.60;46.80;;;23.79;38.92;97927.22;4954171;29;20056;-46
2023/06/25 07:54:48;;;;;;;6.40;5.60;;;22.70;46.90;;;23.83;38.44;97922.94;4954287;28;20546;-47
2023/06/25 07:57:16;;;;;;;7.53;5.65;;;22.70;46.90;;;23.88;38.28;97923.03;4954412;28;20043;-47
2023/06/25 07:59:43;;;;;;;6.70;6.03;;;22.80;45.80;;;23.96;37.97;97930.84;4953292;28;20047;-49
2023/06/25 08:02:21;;;;;;;10.55;9.65;;;22.90;45.70;;;24.03;37.53;97924.44;4946591;28;20494;-46
2023/06/25 08:04:49;;;;;;;7.95;6.75;;;22.90;44.70;;;24.06;37.14;97921.22;4946012;29;20055;-48
2023/06/25 08:07:17;;;;;;;7.07;5.80;;;23.00;44.10;;;24.11;36.95;97918.63;4953886;29;20047;-50
2023/06/25 08:09:46;;;;;;;6.90;6.13;;;23.00;44.00;;;24.17;36.53;97917.63;4954120;29;20047;-51
2023/06/25 08:12:14;;;;;;;6.75;5.97;;;23.00;43.30;;;24.24;36.38;97921.03;4953762;28;20070;-48
2023/06/25 08:14:43;;;;;;;11.00;6.65;;;23.10;43.60;;;24.31;36.06;97916.28;4953540;29;20047;-50
2023/06/25 08:17:11;;;;;;;8.40;6.20;;;23.20;43.10;;;24.37;35.99;97911.78;4953346;28;20376;-51
2023/06/25 08:19:38;;;;;;;7.30;6.28;;;23.20;42.50;;;24.41;35.87;97917.53;4953023;29;20047;-48
2023/06/25 08:22:06;;;;;;;7.55;5.68;;;23.30;42.30;;;24.45;35.45;97908.66;4932889;29;20043;-54
2023/06/25 08:24:33;;;;;;;8.48;6.68;;;23.40;41.60;;;24.50;35.12;97903.28;4950933;28;20345;-51
2023/06/25 08:27:01;;;;;;;6.70;6.00;;;23.40;40.80;;;24.56;35.17;97912.41;4960001;28;20054;-53
2023/06/25 08:29:30;;;;;;;8.00;6.72;;;23.50;41.30;;;24.63;35.06;97913.09;4959671;28;20507;-51
2023/06/25 08:31:58;;;;;;;6.93;6.18;;;23.60;40.90;;;24.69;35.07;97914.81;4955444;28;20152;-49
2023/06/25 08:34:26;;;;;;;10.43;6.40;;;23.60;41.00;;;24.75;34.27;97902.13;4952423;29;20518;-52
2023/06/25 08:36:55;;;;;;;7.75;6.25;;;23.60;40.00;;;24.79;34.40;97900.56;4948387;28;20074;-47
2023/06/25 08:39:22;;;;;;;10.73;6.85;;;23.70;40.00;;;24.85;34.05;97899.56;4949873;29;20054;-52
2023/06/25 08:41:50;;;;;;;7.15;5.80;;;23.80;39.10;;;24.95;33.68;97909.78;4949873;29;20283;-51
2023/06/25 08:44:18;;;;;;;7.30;6.18;;;23.80;38.90;;;25.02;33.12;97905.00;4960092;28;20047;-51
2023/06/25 08:46:49;;;;;;;7.93;6.32;;;24.00;38.60;;;25.06;33.23;97908.88;4955572;28;20066;-49
2023/06/25 08:49:22;;;;;;;7.90;6.07;;;24.00;38.20;;;25.12;33.09;97905.16;4938770;28;20518;-48
2023/06/25 08:51:55;;;;;;;7.85;6.20;;;24.00;38.30;;;25.17;33.14;97909.88;4934628;29;20058;-50
2023/06/25 08:54:22;;;;;;;7.78;6.00;;;24.10;38.20;;;25.23;32.54;97905.38;4926836;29;20159;-48
2023/06/25 08:56:50;;;;;;;7.40;6.07;;;24.10;38.00;;;25.28;32.46;97900.81;4950851;28;20141;-51
2023/06/25 08:59:18;;;;;;;7.50;5.63;;;24.20;37.70;;;25.34;31.93;97890.81;4950069;28;20051;-50
2023/06/25 09:01:46;;;;;;;7.72;6.03;;;24.30;37.20;;;25.37;32.18;97892.22;4956041;28;20043;-51
2023/06/25 09:04:13;;;;;;;7.20;5.40;;;24.30;37.10;;;25.41;32.37;97890.63;4934673;29;20047;-52
2023/06/25 09:06:41;;;;;;;6.38;5.47;;;24.30;37.20;;;25.44;32.12;97895.59;4958309;28;20089;-50
2023/06/25 09:09:28;;;;;;;6.07;5.47;;;24.40;36.90;;;25.49;31.47;97899.22;4944449;28;20050;-48
2023/06/25 09:11:56;;;;;;;7.20;5.75;;;24.40;36.20;;;25.57;31.50;97895.22;4935850;29;20459;-54
2023/06/25 09:14:24;;;;;;;7.15;6.20;;;24.50;36.20;;;25.59;30.96;97892.22;4948532;28;20043;-53
2023/06/25 09:16:51;;;;;;;6.72;5.75;;;24.60;35.20;;;25.62;31.13;97887.09;4953245;28;20127;-53
2023/06/25 09:19:20;;;;;;;8.93;5.90;;;24.60;35.40;;;25.68;30.74;97886.09;4950145;28;20050;-52
2023/06/25 09:21:48;;;;;;;7.43;6.53;;;24.60;34.90;;;25.77;30.38;97897.41;4944057;28;20058;-53
2023/06/25 09:24:21;;;;;;;8.30;6.07;;;24.70;35.00;;;25.81;30.30;97889.53;4947256;29;20051;-48
2023/06/25 09:26:51;;;;;;;7.43;6.23;;;24.70;33.90;;;25.85;29.95;97879.75;4950926;28;20054;-51
2023/06/25 09:29:21;;;;;;;5.90;5.30;;;24.80;34.40;;;25.90;30.08;97888.00;4950782;29;20667;-49
2023/06/25 09:31:49;;;;;;;8.40;5.82;;;24.80;34.60;;;25.93;30.13;97882.88;4933831;29;20412;-52
2023/06/25 09:34:18;;;;;;;6.50;5.80;;;24.90;34.60;;;25.98;29.90;97881.28;4951133;28;20059;-51
2023/06/25 09:36:46;;;;;;;7.97;6.03;;;24.90;33.90;;;26.02;29.44;97887.91;4950490;28;20054;-52
2023/06/25 09:39:13;;;;;;;7.13;5.90;;;24.90;33.40;;;26.05;28.94;97877.28;4948914;28;20063;-48
2023/06/25 09:41:41;;;;;;;7.53;6.55;;;25.00;32.50;;;26.07;28.77;97877.03;4949350;29;20078;-51
2023/06/25 09:44:10;;;;;;;7.63;6.38;;;25.00;32.60;;;26.12;28.73;97874.38;4949956;28;20051;-50
2023/06/25 09:46:40;;;;;;;7.15;6.13;;;25.10;32.10;;;26.19;28.09;97872.28;4948925;29;20062;-50
2023/06/25 09:49:09;;;;;;;8.30;6.07;;;25.10;31.70;;;26.23;27.90;97880.75;4950246;29;20413;-53
2023/06/25 09:51:59;;;;;;;7.45;6.32;;;25.10;31.40;;;26.27;28.62;97874.53;4952213;28;20520;-52
2023/06/25 09:54:29;;;;;;;7.78;6.32;;;25.30;30.60;;;26.34;27.94;97871.59;4934589;29;20059;-49
2023/06/25 09:57:02;;;;;;;8.25;6.47;;;25.30;31.50;;;26.36;28.06;97863.16;4949652;29;20120;-50
2023/06/25 09:59:30;;;;;;;7.47;5.97;;;25.30;31.40;;;26.41;28.22;97855.03;4944519;28;20051;-53
2023/06/25 10:01:58;;;;;;;7.07;6.30;;;25.40;32.00;;;26.47;28.18;97863.00;4949008;29;20415;-51
2023/06/25 10:04:26;;;;;;;8.93;6.22;;;25.40;32.00;;;26.52;28.08;97848.56;4950396;28;20059;-53
2023/06/25 10:06:54;;;;;;;7.55;5.85;;;25.50;31.40;;;26.57;28.24;97845.88;4950688;29;20460;-52
2023/06/25 10:09:22;;;;;;;7.22;6.00;;;25.50;31.60;;;26.62;28.34;97847.84;4933071;29;20043;-52
2023/06/25 10:11:54;;;;;;;8.40;7.13;;;25.60;31.50;;;26.69;28.17;97845.72;4941487;28;20503;-51
2023/06/25 10:14:23;;;;;;;8.25;6.50;;;25.70;31.60;;;26.72;27.82;97834.31;4950503;28;20054;-51
2023/06/25 10:16:54;;;;;;;8.88;6.93;;;25.70;31.20;;;26.77;27.60;97833.50;4955216;28;20470;-52
2023/06/25 10:19:27;;;;;;;7.88;6.38;;;25.80;30.70;;;26.84;27.42;97834.13;4954666;28;20143;-48
2023/06/25 10:22:15;;;;;;;6.80;6.05;;;25.80;29.70;;;26.92;26.85;97825.44;4954019;28;20502;-52
2023/06/25 10:24:48;;;;;;;7.03;5.88;;;25.90;28.60;;;27.00;26.27;97830.38;4952786;29;20051;-45
2023/06/25 10:27:25;;;;;;;8.10;6.35;;;26.00;29.40;;;27.05;26.35;97838.63;4952706;29;20051;-50